Time;durP1;ratioP1;P1;durP2;ratioP2;P2;SDS_P1;SDS_P2;PMS_P1;PMS_P2;Temp;Humidity;BMP_temperature;BMP_pressure;BME280_temperature;BME280_humidity;BME280_pressure;Samples;Min_cycle;Max_cycle;Signal;HPM_P1;HPM_P2
2022/09/25 00:01:07;;;;;;;5.10;0.40;;;;;;;9.76;53.71;101425.09;5009517;28;20141;-68
2022/09/25 00:03:36;;;;;;;6.18;0.70;;;;;;;9.73;53.73;101426.94;5014901;28;20083;-67
2022/09/25 00:06:05;;;;;;;6.45;1.75;;;;;;;9.70;54.18;101422.69;5015271;28;20402;-67
2022/09/25 00:08:32;;;;;;;8.85;0.57;;;;;;;9.78;54.03;101420.69;5008692;28;20037;-67
2022/09/25 00:10:58;;;;;;;4.63;0.70;;;;;;;9.83;53.30;101420.59;5003656;28;20040;-67
2022/09/25 00:13:24;;;;;;;5.13;1.20;;;;;;;9.74;53.56;101424.28;5010083;28;20461;-70
2022/09/25 00:15:55;;;;;;;4.90;0.30;;;;;;;9.74;53.64;101426.88;5009452;28;20075;-70
2022/09/25 00:21:10;;;;;;;2.15;1.15;;;;;;;9.64;53.71;101428.06;5008719;28;20041;-71
2022/09/25 00:23:35;;;;;;;3.50;0.57;;;;;;;9.59;53.70;101432.56;5011803;28;20037;-67
2022/09/25 00:26:01;;;;;;;4.72;0.50;;;;;;;9.58;53.77;101428.22;5007213;28;20541;-67
2022/09/25 00:28:28;;;;;;;9.60;0.75;;;;;;;9.44;54.20;101423.38;5011149;28;20034;-67
2022/09/25 00:30:57;;;;;;;4.78;1.25;;;;;;;9.46;54.46;101421.56;5007866;28;20037;-68
2022/09/25 00:33:23;;;;;;;3.20;0.57;;;;;;;9.43;54.37;101426.00;5009283;28;20037;-66
2022/09/25 00:35:48;;;;;;;6.78;0.47;;;;;;;9.37;54.29;101417.44;5008836;28;20030;-68
2022/09/25 00:38:14;;;;;;;5.25;0.43;;;;;;;9.33;54.30;101414.97;5007889;28;20100;-66
2022/09/25 00:40:39;;;;;;;5.88;0.60;;;;;;;9.29;54.17;101411.56;5011126;28;20133;-67
2022/09/25 00:43:12;;;;;;;3.67;0.20;;;;;;;9.26;54.00;101419.50;5007406;28;20076;-67
2022/09/25 00:45:38;;;;;;;5.47;0.47;;;;;;;9.21;54.38;101417.88;5006234;28;20495;-67
2022/09/25 00:48:06;;;;;;;2.53;0.55;;;;;;;9.18;54.42;101419.66;5008390;28;20044;-68
2022/09/25 00:50:40;;;;;;;5.28;0.17;;;;;;;9.20;54.74;101411.81;5008300;28;20041;-67
2022/09/25 00:53:11;;;;;;;3.92;0.40;;;;;;;9.17;54.14;101417.13;5006334;28;20063;-67
2022/09/25 00:55:38;;;;;;;2.35;0.40;;;;;;;9.12;54.52;101430.28;5009051;28;20038;-68
2022/09/25 00:58:04;;;;;;;3.67;0.68;;;;;;;9.10;54.42;101418.19;5005605;28;20045;-67
2022/09/25 01:00:31;;;;;;;1.27;0.32;;;;;;;9.05;54.74;101425.22;5009440;28;20048;-67
2022/09/25 01:02:57;;;;;;;8.98;0.60;;;;;;;8.93;54.98;101421.19;5006968;28;20041;-67
2022/09/25 01:05:32;;;;;;;2.63;0.32;;;;;;;8.84;55.09;101424.88;5029252;28;20463;-67
2022/09/25 01:08:00;;;;;;;3.53;0.20;;;;;;;8.84;54.90;101424.88;5010755;28;20091;-67
2022/09/25 01:10:26;;;;;;;1.70;0.20;;;;;;;8.82;54.89;101420.59;5009653;28;20124;-67
2022/09/25 01:12:54;;;;;;;2.70;0.30;;;;;;;8.77;55.01;101418.94;5008439;28;20124;-70
2022/09/25 01:15:25;;;;;;;4.03;0.30;;;;;;;8.74;54.88;101423.38;5010351;28;20417;-69
2022/09/25 01:17:55;;;;;;;9.73;0.30;;;;;;;8.65;55.57;101413.13;5006190;28;20092;-69
2022/09/25 01:20:42;;;;;;;2.03;0.25;;;;;;;8.65;55.89;101418.34;5028582;28;20501;-68
2022/09/25 01:23:35;;;;;;;2.28;0.38;;;;;;;8.66;55.66;101409.63;5007481;28;20538;-70
2022/09/25 01:26:06;;;;;;;7.10;0.50;;;;;;;8.65;55.25;101402.69;4996435;28;20542;-71
2022/09/25 01:28:34;;;;;;;2.28;0.40;;;;;;;8.58;55.49;101407.19;5006437;28;20045;-69
2022/09/25 01:31:10;;;;;;;8.88;0.35;;;;;;;8.52;55.88;101410.81;5003999;28;20109;-69
2022/09/25 01:33:44;;;;;;;4.25;0.13;;;;;;;8.55;55.51;101408.13;5012846;28;20066;-68
2022/09/25 01:36:27;;;;;;;1.63;0.10;;;;;;;8.51;56.29;101413.44;5005337;28;20345;-69
2022/09/25 01:39:01;;;;;;;6.68;0.25;;;;;;;8.56;56.25;101417.69;5008898;28;20045;-67
2022/09/25 01:41:43;;;;;;;3.80;0.55;;;;;;;8.63;56.19;101420.13;5005455;28;20186;-72
2022/09/25 01:44:33;;;;;;;5.88;0.45;;;;;;;8.71;55.96;101416.47;5011879;28;20121;-71
2022/09/25 01:47:07;;;;;;;4.38;0.30;;;;;;;8.76;55.96;101417.25;5002441;28;20072;-72
2022/09/25 01:49:38;;;;;;;4.72;0.57;;;;;;;8.76;56.22;101416.38;5023019;28;20069;-72
2022/09/25 01:52:11;;;;;;;9.38;1.05;;;;;;;8.79;55.92;101411.09;5006920;28;20052;-72
2022/09/25 01:54:43;;;;;;;1.90;0.35;;;;;;;8.82;56.18;101410.16;4995167;28;20025;-72
2022/09/25 01:57:24;;;;;;;5.25;0.22;;;;;;;8.91;56.79;101418.59;5007308;28;20583;-73
2022/09/25 02:00:04;;;;;;;6.32;0.65;;;;;;;9.04;56.59;101413.09;5005930;28;20030;-73
2022/09/25 02:02:42;;;;;;;4.63;1.05;;;;;;;9.07;56.71;101411.25;5007686;28;20050;-73
2022/09/25 02:05:34;;;;;;;7.32;0.45;;;;;;;9.14;55.87;101407.63;5005656;28;20033;-72
2022/09/25 02:08:02;;;;;;;;;;;;;;;9.15;56.46;101403.25;4984386;28;20069;-73
2022/09/25 02:10:54;;;;;;;4.32;0.40;;;;;;;9.18;56.51;101405.78;5005457;28;19913;-67
2022/09/25 02:13:23;;;;;;;5.32;0.20;;;;;;;9.18;56.54;101403.16;4999892;28;20052;-66
2022/09/25 02:16:03;;;;;;;11.02;0.50;;;;;;;9.21;56.83;101408.31;5005433;28;20120;-73
2022/09/25 02:21:41;;;;;;;3.13;0.25;;;;;;;9.33;56.73;101400.16;5007264;28;20627;-72
2022/09/25 02:24:23;;;;;;;6.75;0.73;;;;;;;9.38;56.91;101395.66;5011329;28;20041;-71
2022/09/25 02:26:50;;;;;;;7.70;0.47;;;;;;;9.38;56.45;101400.88;5007587;28;20381;-73
2022/09/25 02:29:17;;;;;;;5.13;0.43;;;;;;;9.42;56.38;101395.59;5006752;28;20045;-74
2022/09/25 02:31:58;;;;;;;8.48;0.47;;;;;;;9.52;56.36;101395.31;5025695;28;20635;-73
2022/09/25 02:34:23;;;;;;;2.65;0.90;;;;;;;9.62;55.74;101402.91;4987782;28;20450;-74
2022/09/25 02:36:49;;;;;;;2.97;0.30;;;;;;;9.61;55.99;101396.84;5004232;28;20033;-74
2022/09/25 02:39:17;;;;;;;8.40;0.30;;;;;;;9.64;56.33;101398.50;5007177;28;20030;-74
2022/09/25 02:41:55;;;;;;;6.03;0.32;;;;;;;9.67;56.13;101395.78;5003397;28;20136;-68
2022/09/25 02:44:45;;;;;;;6.05;0.57;;;;;;;9.83;55.71;101397.09;5007623;28;20824;-68
2022/09/25 02:47:33;;;;;;;10.10;0.40;;;;;;;9.92;55.83;101393.34;5009590;28;20223;-68
2022/09/25 02:50:14;;;;;;;8.05;0.50;;;;;;;9.93;55.73;101395.94;5006545;28;20192;-68
2022/09/25 02:52:44;;;;;;;2.72;0.22;;;;;;;10.02;55.66;101393.06;5009466;28;20045;-68
2022/09/25 02:55:37;;;;;;;3.45;0.28;;;;;;;10.14;55.03;101391.81;5016100;28;20068;-68
2022/09/25 02:58:15;;;;;;;4.25;0.20;;;;;;;10.06;55.05;101396.44;5010060;28;20053;-72
2022/09/25 03:00:45;;;;;;;6.95;0.20;;;;;;;10.04;54.79;101395.63;5000100;28;20474;-72
2022/09/25 03:03:14;;;;;;;7.40;0.30;;;;;;;10.02;54.86;101398.28;5007825;28;20461;-72
2022/09/25 03:05:40;;;;;;;2.70;0.28;;;;;;;10.13;54.24;101395.34;5008840;28;20064;-69
2022/09/25 03:10:50;;;;;;;1.35;0.10;;;;;;;10.06;54.23;101396.44;5009014;28;20034;-72
2022/09/25 03:13:21;;;;;;;2.33;0.17;;;;;;;10.02;54.22;101397.44;5010183;28;20050;-72
2022/09/25 03:15:54;;;;;;;1.60;0.10;;;;;;;10.06;53.91;101391.22;5013439;28;20957;-73
2022/09/25 03:18:21;;;;;;;6.15;0.20;;;;;;;10.02;54.15;101397.44;5008136;28;20139;-72
2022/09/25 03:20:49;;;;;;;0.47;0.10;;;;;;;10.13;53.59;101397.97;5011538;28;20041;-73
2022/09/25 03:23:14;;;;;;;2.17;0.10;;;;;;;10.10;53.67;101400.69;5011545;28;20053;-73
2022/09/25 03:25:40;;;;;;;1.30;0.10;;;;;;;10.05;53.82;101397.31;5011062;28;20025;-73
2022/09/25 03:28:10;;;;;;;2.08;0.25;;;;;;;10.02;53.65;101397.44;5016575;28;20613;-72
2022/09/25 03:30:39;;;;;;;0.60;0.10;;;;;;;10.07;53.56;101386.84;5013895;28;20095;-72
2022/09/25 03:33:09;;;;;;;8.13;0.43;;;;;;;9.92;53.94;101398.59;5008618;28;20107;-71
2022/09/25 03:35:36;;;;;;;2.85;0.30;;;;;;;9.93;54.05;101397.69;5009152;28;20037;-71
2022/09/25 03:38:02;;;;;;;6.38;0.38;;;;;;;9.84;54.40;101390.97;5011892;28;20037;-73
2022/09/25 03:40:27;;;;;;;5.90;0.40;;;;;;;9.86;54.73;101397.03;5010175;28;20553;-72
2022/09/25 03:42:52;;;;;;;1.45;0.20;;;;;;;10.00;54.95;101389.63;5012576;28;20061;-72
2022/09/25 03:45:18;;;;;;;2.47;0.20;;;;;;;10.07;54.50;101389.44;5008025;28;20656;-71
2022/09/25 03:47:44;;;;;;;7.30;0.70;;;;;;;10.19;54.38;101396.91;5010220;28;20039;-73
2022/09/25 03:50:09;;;;;;;0.75;0.15;;;;;;;10.32;53.77;101397.41;5012384;28;20417;-72
2022/09/25 03:52:35;;;;;;;5.07;0.45;;;;;;;10.39;53.42;101399.78;5009704;28;20131;-72
2022/09/25 03:55:01;;;;;;;7.63;0.57;;;;;;;10.29;53.77;101395.75;5011082;28;20398;-72
2022/09/25 03:57:26;;;;;;;6.45;0.68;;;;;;;10.34;54.01;101396.44;5009668;28;20052;-71
2022/09/25 03:59:52;;;;;;;9.52;0.50;;;;;;;10.38;53.76;101394.59;5008573;28;20545;-72
2022/09/25 04:02:18;;;;;;;1.70;0.13;;;;;;;10.42;53.61;101394.47;4987917;28;20728;-72
2022/09/25 04:04:44;;;;;;;4.43;0.20;;;;;;;10.42;53.54;101396.22;5006077;28;20554;-72
2022/09/25 04:07:11;;;;;;;4.45;0.70;;;;;;;10.38;53.83;101402.44;5008489;28;20053;-71
2022/09/25 04:09:36;;;;;;;1.55;0.20;;;;;;;10.39;53.92;101391.97;5009355;28;20045;-70
2022/09/25 04:12:04;;;;;;;4.45;0.82;;;;;;;10.35;54.13;101389.50;5008731;28;20084;-72
2022/09/25 04:14:30;;;;;;;8.73;0.55;;;;;;;10.30;53.83;101389.59;5008530;28;20036;-72
2022/09/25 04:16:56;;;;;;;5.05;0.93;;;;;;;10.31;53.84;101387.88;5005954;28;20050;-70
2022/09/25 04:19:21;;;;;;;2.78;0.35;;;;;;;10.33;53.72;101386.91;5010851;28;20540;-70
2022/09/25 04:21:46;;;;;;;7.30;0.43;;;;;;;10.23;53.35;101382.84;5004759;28;20241;-68
2022/09/25 04:26:57;;;;;;;9.43;0.75;;;;;;;10.20;52.55;101375.97;5007315;28;20037;-67
2022/09/25 04:29:23;;;;;;;6.15;0.88;;;;;;;10.20;52.54;101380.34;5008702;28;20057;-67
2022/09/25 04:33:45;;;;;;;7.70;0.57;;;;;;;10.15;52.60;101380.50;4992069;28;20041;-67
2022/09/25 04:34:34;;;;;;;3.67;0.73;;;;;;;10.13;52.29;101379.69;5009305;28;20052;-68
2022/09/25 04:37:00;;;;;;;4.40;0.77;;;;;;;9.99;52.56;101381.81;5009189;28;20498;-66
2022/09/25 04:39:26;;;;;;;4.72;0.35;;;;;;;9.97;52.54;101384.50;5005064;28;20033;-68
2022/09/25 04:41:51;;;;;;;1.90;0.50;;;;;;;9.99;52.52;101381.81;5013098;28;20050;-71
2022/09/25 04:44:17;;;;;;;5.35;0.50;;;;;;;9.92;52.37;101375.97;5009435;28;20044;-71
2022/09/25 04:46:42;;;;;;;6.75;0.52;;;;;;;9.93;52.31;101376.81;5004864;28;21293;-69
2022/09/25 04:49:07;;;;;;;3.10;0.20;;;;;;;9.81;52.41;101370.16;5008466;28;20044;-69
2022/09/25 04:51:33;;;;;;;8.05;1.13;;;;;;;9.68;52.84;101372.25;5007857;28;20045;-70
2022/09/25 04:53:58;;;;;;;2.08;0.30;;;;;;;9.67;52.55;101370.53;5007900;28;20041;-69
2022/09/25 04:56:24;;;;;;;3.03;0.20;;;;;;;9.56;52.82;101376.06;5009417;28;20152;-70
2022/09/25 04:58:50;;;;;;;3.30;0.28;;;;;;;9.59;52.69;101375.13;5004270;28;20038;-70
2022/09/25 05:01:18;;;;;;;2.20;0.30;;;;;;;9.50;52.60;101377.97;5013694;28;20026;-70
2022/09/25 05:03:47;;;;;;;0.55;0.10;;;;;;;9.40;52.65;101378.22;5013567;28;20460;-71
2022/09/25 05:06:13;;;;;;;1.55;0.75;;;;;;;9.33;53.10;101386.28;5007326;28;20060;-67
2022/09/25 05:08:38;;;;;;;3.90;0.30;;;;;;;9.26;53.05;101380.34;5005539;28;20300;-69
2022/09/25 05:11:04;;;;;;;2.65;0.20;;;;;;;9.23;53.29;101380.47;5008582;28;20395;-68
2022/09/25 05:13:29;;;;;;;3.28;0.10;;;;;;;9.23;53.42;101383.06;5009024;28;20140;-70
2022/09/25 05:15:55;;;;;;;4.63;0.10;;;;;;;9.23;53.43;101382.19;5006623;28;20109;-69
2022/09/25 05:18:25;;;;;;;4.07;0.55;;;;;;;9.25;53.41;101386.47;4995758;28;20550;-71
2022/09/25 05:20:54;;;;;;;6.10;0.60;;;;;;;9.25;53.44;101389.06;5007953;28;20533;-68
2022/09/25 05:23:21;;;;;;;1.35;0.43;;;;;;;9.27;53.35;101387.28;5006410;28;20041;-68
2022/09/25 05:26:01;;;;;;;6.82;0.25;;;;;;;9.16;53.35;101384.97;5008453;28;20505;-70
2022/09/25 05:28:27;;;;;;;3.80;0.28;;;;;;;9.13;53.38;101394.63;5002634;28;20069;-68
2022/09/25 05:30:53;;;;;;;2.00;0.20;;;;;;;9.07;53.72;101381.72;5029642;28;20042;-71
2022/09/25 05:33:19;;;;;;;2.45;0.20;;;;;;;9.04;54.01;101387.03;5004326;28;20456;-72
2022/09/25 05:35:45;;;;;;;2.95;0.30;;;;;;;9.04;53.64;101389.63;5010447;28;20079;-70
2022/09/25 05:38:11;;;;;;;1.65;0.10;;;;;;;9.00;53.71;101393.22;5008890;28;20615;-69
2022/09/25 05:40:39;;;;;;;0.57;0.15;;;;;;;8.91;53.63;101387.31;5007748;28;20076;-71
2022/09/25 05:43:05;;;;;;;5.18;0.40;;;;;;;8.84;53.73;101390.13;5007847;28;20619;-70
2022/09/25 05:45:32;;;;;;;1.55;0.10;;;;;;;8.81;53.78;101393.69;5004704;28;20092;-71
2022/09/25 05:48:05;;;;;;;2.55;0.30;;;;;;;8.79;53.93;101395.47;5005994;28;20469;-71
2022/09/25 05:50:31;;;;;;;0.85;0.35;;;;;;;8.82;54.32;101389.31;5007126;28;20034;-69
2022/09/25 05:53:02;;;;;;;7.57;0.15;;;;;;;8.77;54.46;101392.88;5027128;28;20168;-70
2022/09/25 05:55:29;;;;;;;2.78;0.10;;;;;;;8.77;54.44;101397.25;5008575;28;20095;-73
2022/09/25 05:58:00;;;;;;;2.30;0.35;;;;;;;8.86;54.27;101396.16;4996331;28;20315;-67
2022/09/25 06:00:26;;;;;;;3.33;0.40;;;;;;;8.93;53.97;101398.56;5006007;28;20037;-72
2022/09/25 06:02:52;;;;;;;7.88;0.30;;;;;;;8.89;54.29;101396.94;5005078;28;20272;-67
2022/09/25 06:05:18;;;;;;;6.95;0.70;;;;;;;8.96;53.89;101397.63;5009423;28;20052;-69
2022/09/25 06:07:43;;;;;;;1.52;0.10;;;;;;;8.97;53.80;101389.78;5007287;28;20033;-69
2022/09/25 06:10:10;;;;;;;2.10;0.38;;;;;;;9.10;53.41;101392.09;5008895;28;20486;-69
2022/09/25 06:12:35;;;;;;;7.03;0.43;;;;;;;9.09;53.25;101387.75;5007915;28;20418;-68
2022/09/25 06:15:01;;;;;;;6.28;0.30;;;;;;;9.13;53.15;101389.41;5013437;28;20064;-67
2022/09/25 06:17:27;;;;;;;1.45;0.47;;;;;;;9.15;53.06;101392.81;5005189;28;20130;-72
2022/09/25 06:19:52;;;;;;;2.33;0.30;;;;;;;9.14;52.90;101398.91;5002338;28;20497;-73
2022/09/25 06:22:18;;;;;;;2.83;0.82;;;;;;;9.11;52.90;101391.19;5006856;28;20136;-69
2022/09/25 06:24:44;;;;;;;1.85;0.30;;;;;;;9.20;52.94;101398.78;5005668;28;20559;-71
2022/09/25 06:27:10;;;;;;;6.88;0.20;;;;;;;9.72;52.65;101393.91;5011366;28;20049;-69
2022/09/25 06:29:35;;;;;;;1.95;0.20;;;;;;;11.22;50.47;101389.28;5009118;28;20045;-71
2022/09/25 06:32:02;;;;;;;2.55;0.20;;;;;;;11.24;47.86;101390.06;5010380;28;20052;-69
2022/09/25 06:34:27;;;;;;;2.55;0.30;;;;;;;11.17;47.10;101387.72;5010900;28;20110;-72
2022/09/25 06:36:53;;;;;;;0.80;0.10;;;;;;;11.05;48.17;101397.69;5009118;28;20514;-72
2022/09/25 06:39:19;;;;;;;6.10;0.55;;;;;;;10.84;47.72;101401.03;5011916;28;20022;-72
2022/09/25 06:41:45;;;;;;;3.85;0.10;;;;;;;10.98;47.71;101396.19;5014269;28;20173;-69
2022/09/25 06:44:20;;;;;;;4.75;0.30;;;;;;;12.37;46.27;101402.53;5012498;28;20383;-71
2022/09/25 06:46:53;;;;;;;1.52;0.30;;;;;;;12.63;44.52;101403.28;5008799;28;20099;-70
2022/09/25 06:49:19;;;;;;;2.03;0.10;;;;;;;13.97;43.39;101403.69;5009337;28;20061;-68
2022/09/25 06:51:45;;;;;;;2.20;0.10;;;;;;;16.92;37.57;101395.47;5015519;28;20149;-69
2022/09/25 06:54:11;;;;;;;3.80;0.20;;;;;;;19.46;30.73;101383.66;5012283;28;20056;-69
2022/09/25 06:56:36;;;;;;;2.00;0.30;;;;;;;20.88;27.88;101384.06;4997016;28;20041;-68
2022/09/25 06:59:02;;;;;;;3.40;0.10;;;;;;;20.65;28.90;101383.97;5011123;28;20018;-68
2022/09/25 07:01:28;;;;;;;5.97;0.20;;;;;;;21.55;26.85;101383.34;5009484;28;20029;-68
2022/09/25 07:03:54;;;;;;;0.52;0.10;;;;;;;22.25;25.80;101373.31;5009312;28;20504;-69
2022/09/25 07:06:22;;;;;;;2.95;0.20;;;;;;;20.50;26.90;101383.28;5009429;28;20120;-69
2022/09/25 07:08:49;;;;;;;4.57;0.20;;;;;;;19.23;29.32;101379.97;5009177;28;20041;-69
2022/09/25 07:11:20;;;;;;;1.27;0.10;;;;;;;18.78;30.40;101382.06;5012278;28;20033;-69
2022/09/25 07:13:48;;;;;;;1.67;0.10;;;;;;;20.09;29.67;101379.19;5010194;28;20037;-68
2022/09/25 07:16:16;;;;;;;3.45;0.15;;;;;;;21.98;26.44;101377.25;5010772;28;20109;-68
2022/09/25 07:18:42;;;;;;;6.93;0.20;;;;;;;22.99;24.68;101379.56;5014101;28;20637;-69
2022/09/25 07:21:17;;;;;;;2.38;0.57;;;;;;;24.54;23.00;101377.56;5011419;28;20108;-70
2022/09/25 07:23:43;;;;;;;1.50;0.10;;;;;;;25.77;21.04;101380.19;5007593;28;20045;-72
2022/09/25 07:26:12;;;;;;;1.77;0.20;;;;;;;26.41;19.70;101372.16;5011886;28;20026;-68
2022/09/25 07:28:39;;;;;;;1.45;0.10;;;;;;;25.53;20.41;101379.88;5008944;28;21699;-68
2022/09/25 07:31:17;;;;;;;4.50;0.10;;;;;;;25.30;21.77;101376.72;5009947;28;20048;-68
2022/09/25 07:33:43;;;;;;;1.90;0.20;;;;;;;24.96;21.69;101385.25;5008462;28;20042;-69
2022/09/25 07:36:09;;;;;;;6.03;0.60;;;;;;;25.27;22.20;101372.50;5011464;28;20706;-67
2022/09/25 07:38:35;;;;;;;2.95;0.10;;;;;;;25.55;21.34;101373.41;5007666;28;20126;-68
2022/09/25 07:41:04;;;;;;;2.05;0.10;;;;;;;25.89;20.79;101370.13;5014551;28;20781;-67
2022/09/25 07:43:30;;;;;;;1.20;0.10;;;;;;;25.14;21.44;101374.66;5009234;28;20049;-68
2022/09/25 07:45:56;;;;;;;2.45;0.10;;;;;;;24.56;22.25;101378.25;5015307;28;20123;-68
2022/09/25 07:48:22;;;;;;;1.20;0.10;;;;;;;23.16;23.41;101372.78;5008020;28;20528;-68
2022/09/25 07:50:48;;;;;;;0.93;0.10;;;;;;;23.62;22.52;101373.28;5010134;28;20042;-67
2022/09/25 07:53:17;;;;;;;2.00;0.32;;;;;;;22.20;24.43;101367.53;5009471;28;20042;-68
2022/09/25 07:55:44;;;;;;;2.75;0.10;;;;;;;23.65;23.30;101369.50;5008990;28;20033;-68
2022/09/25 07:58:10;;;;;;;1.95;0.38;;;;;;;23.95;22.48;101371.31;5012665;28;20084;-68
2022/09/25 08:00:36;;;;;;;2.70;0.40;;;;;;;23.73;22.92;101375.84;5006377;28;20124;-67
2022/09/25 08:03:01;;;;;;;1.05;0.20;;;;;;;23.02;23.07;101380.25;5008383;28;20056;-68
2022/09/25 08:05:27;;;;;;;5.03;0.63;;;;;;;23.26;22.20;101378.16;5010151;28;20479;-68
2022/09/25 08:07:53;;;;;;;1.40;0.10;;;;;;;23.12;23.15;101371.34;5007416;28;20061;-67
2022/09/25 08:10:20;;;;;;;2.72;0.10;;;;;;;23.07;23.26;101383.38;5011189;28;20044;-67
2022/09/25 08:12:45;;;;;;;4.28;0.15;;;;;;;22.33;22.71;101378.88;4995397;28;20045;-67
2022/09/25 08:15:13;;;;;;;0.40;0.00;;;;;;;22.17;23.71;101385.44;5016065;28;20460;-68
2022/09/25 08:17:39;;;;;;;5.13;0.25;;;;;;;22.50;24.01;101381.00;5010316;28;20033;-69
2022/09/25 08:20:06;;;;;;;1.85;0.00;;;;;;;22.37;23.61;101386.47;5010441;28;20030;-68
2022/09/25 08:22:32;;;;;;;3.00;0.10;;;;;;;22.56;23.75;101385.81;5029419;28;20049;-67
2022/09/25 08:24:59;;;;;;;1.45;0.10;;;;;;;22.74;22.79;101382.59;5009393;28;20053;-68
2022/09/25 08:27:24;;;;;;;3.13;0.08;;;;;;;22.07;23.53;101384.50;5003663;28;20443;-67
2022/09/25 08:29:50;;;;;;;2.05;0.10;;;;;;;21.21;24.89;101385.94;5007762;28;20079;-68
2022/09/25 08:32:15;;;;;;;3.05;0.40;;;;;;;21.31;25.15;101381.63;5006609;28;20072;-68
2022/09/25 08:34:41;;;;;;;2.38;0.10;;;;;;;21.19;25.03;101385.22;5007584;28;20668;-68
2022/09/25 08:37:07;;;;;;;1.98;0.10;;;;;;;21.28;24.96;101392.47;5006020;28;20091;-68
2022/09/25 08:39:33;;;;;;;5.70;0.10;;;;;;;21.84;24.74;101382.84;5007183;28;20562;-67
2022/09/25 08:41:59;;;;;;;5.63;0.38;;;;;;;21.22;25.65;101382.34;5008077;28;20146;-67
2022/09/25 08:44:37;;;;;;;3.40;0.50;;;;;;;20.95;26.14;101379.97;5007404;28;20029;-67
2022/09/25 08:50:03;;;;;;;3.33;0.20;;;;;;;19.64;29.25;101384.19;5006031;28;20305;-68
2022/09/25 08:52:30;;;;;;;4.72;0.10;;;;;;;18.51;29.68;101389.22;5010452;28;20556;-67
2022/09/25 08:54:55;;;;;;;2.92;0.25;;;;;;;17.90;30.67;101388.69;5005008;28;20132;-67
2022/09/25 08:57:30;;;;;;;1.98;0.10;;;;;;;17.88;30.89;101402.00;5008009;28;20056;-67
2022/09/25 09:00:03;;;;;;;3.53;0.60;;;;;;;18.55;29.66;101396.84;5004470;28;20069;-67
2022/09/25 09:02:38;;;;;;;3.10;0.10;;;;;;;18.33;30.92;101394.75;5005869;28;20088;-68
2022/09/25 09:05:14;;;;;;;6.00;0.50;;;;;;;19.04;30.83;101392.75;5007857;28;20037;-67
2022/09/25 09:07:44;;;;;;;2.38;0.77;;;;;;;19.14;29.58;101385.03;4995117;28;20052;-66
2022/09/25 09:10:22;;;;;;;5.65;0.10;;;;;;;19.25;29.53;101383.31;4994734;28;20649;-67
2022/09/25 09:13:06;;;;;;;5.35;1.00;;;;;;;19.11;29.72;101379.94;4988447;28;20063;-67
2022/09/25 09:16:13;;;;;;;3.10;0.25;;;;;;;19.05;30.05;101389.97;4993147;28;20116;-67
2022/09/25 09:18:41;;;;;;;2.22;0.43;;;;;;;18.70;29.99;101395.00;4987263;28;20521;-67
2022/09/25 09:21:19;;;;;;;5.68;1.83;;;;;;;18.67;30.21;101390.72;5010627;28;20036;-66
2022/09/25 09:23:50;;;;;;;4.93;0.47;;;;;;;19.32;29.27;101385.56;4993780;28;20041;-67
2022/09/25 09:26:31;;;;;;;2.47;0.52;;;;;;;18.73;29.58;101389.50;4996650;28;20030;-68
2022/09/25 09:28:59;;;;;;;1.52;0.17;;;;;;;18.30;30.34;101391.47;4989851;28;20542;-67
2022/09/25 09:31:31;;;;;;;4.75;0.10;;;;;;;18.71;30.75;101391.38;4992365;28;20040;-68
2022/09/25 09:34:18;;;;;;;4.07;0.43;;;;;;;17.97;31.66;101384.72;4992753;28;20034;-68
2022/09/25 09:37:03;;;;;;;3.00;0.15;;;;;;;18.42;31.50;101385.38;4990720;28;20483;-69
2022/09/25 09:39:41;;;;;;;7.05;0.20;;;;;;;18.98;29.41;101386.06;4990342;28;20017;-69
2022/09/25 09:42:21;;;;;;;4.13;0.20;;;;;;;17.75;31.25;101379.91;4993700;28;20098;-68
2022/09/25 09:44:56;;;;;;;6.13;0.10;;;;;;;16.88;32.35;101391.31;4988699;28;20041;-68
2022/09/25 09:47:53;;;;;;;3.13;0.28;;;;;;;16.39;34.06;101387.03;4996079;28;20048;-68
2022/09/25 09:50:35;;;;;;;4.30;0.30;;;;;;;16.84;33.27;101388.00;4984303;28;20705;-68
2022/09/25 09:53:05;;;;;;;1.88;0.20;;;;;;;16.35;33.57;101385.50;5004169;28;20052;-68
2022/09/25 09:55:41;;;;;;;1.98;0.10;;;;;;;16.35;34.24;101386.38;5006640;28;20025;-68
2022/09/25 09:58:37;;;;;;;3.03;0.47;;;;;;;17.84;32.57;101377.53;5003824;28;20654;-68
2022/09/25 10:01:03;;;;;;;3.65;0.10;;;;;;;18.73;30.38;101383.34;5005394;28;20646;-67
2022/09/25 10:03:35;;;;;;;4.68;0.40;;;;;;;18.32;31.05;101373.66;5007118;28;20049;-68
2022/09/25 10:06:07;;;;;;;6.78;0.55;;;;;;;17.76;31.84;101373.66;5006361;28;20026;-68
2022/09/25 10:08:34;;;;;;;4.25;0.30;;;;;;;17.62;31.45;101370.09;5004562;28;20050;-68
2022/09/25 10:11:05;;;;;;;3.80;0.30;;;;;;;17.29;32.64;101373.00;5011213;28;20037;-68
2022/09/25 10:13:35;;;;;;;1.83;0.20;;;;;;;18.12;31.27;101374.94;5012607;28;20050;-68
2022/09/25 10:16:22;;;;;;;2.60;0.20;;;;;;;19.06;30.91;101367.84;5007679;28;20037;-68
2022/09/25 10:18:54;;;;;;;2.15;0.10;;;;;;;19.56;29.31;101367.97;5011544;28;20037;-68
2022/09/25 10:21:23;;;;;;;3.50;0.20;;;;;;;19.17;29.59;101367.13;5008375;28;20033;-68
2022/09/25 10:23:53;;;;;;;5.57;0.17;;;;;;;17.83;31.14;101377.66;5006402;28;20049;-68
2022/09/25 10:26:31;;;;;;;4.72;0.28;;;;;;;17.33;32.61;101374.50;5029597;28;20033;-68
2022/09/25 10:28:59;;;;;;;1.98;0.10;;;;;;;16.78;33.81;101378.66;5006307;28;22833;-68
2022/09/25 10:31:32;;;;;;;5.53;0.20;;;;;;;17.08;33.61;101380.41;5007436;28;20119;-68
2022/09/25 10:34:15;;;;;;;3.13;0.10;;;;;;;17.09;34.69;101382.13;5005293;28;21776;-68
2022/09/25 10:36:47;;;;;;;7.13;0.20;;;;;;;17.88;32.80;101375.56;5003852;28;20513;-68
2022/09/25 10:39:30;;;;;;;0.70;0.10;;;;;;;18.42;31.26;101374.78;5009038;28;20377;-68
2022/09/25 10:41:57;;;;;;;3.65;0.10;;;;;;;18.20;32.12;101370.88;5004542;28;20050;-68
2022/09/25 10:44:32;;;;;;;1.50;0.10;;;;;;;18.17;31.51;101360.47;5011262;28;20124;-68
2022/09/25 10:50:21;;;;;;;3.30;0.10;;;;;;;17.78;31.18;101369.13;5007741;28;20594;-68
2022/09/25 10:52:51;;;;;;;2.30;0.10;;;;;;;17.42;32.27;101375.72;5007055;28;20099;-68
2022/09/25 10:55:29;;;;;;;2.38;0.10;;;;;;;17.92;31.42;101361.19;5007559;28;20095;-68
2022/09/25 10:58:04;;;;;;;2.15;0.00;;;;;;;18.81;29.62;101363.34;5008152;28;20109;-67
2022/09/25 11:00:32;;;;;;;3.30;0.28;;;;;;;18.36;30.56;101365.44;5008882;28;20065;-68
2022/09/25 11:03:01;;;;;;;5.10;0.32;;;;;;;17.35;30.83;101372.63;5008458;28;20045;-69
2022/09/25 11:05:30;;;;;;;3.33;0.10;;;;;;;16.58;31.61;101371.03;5008948;28;20526;-68
2022/09/25 11:07:58;;;;;;;7.13;0.30;;;;;;;16.32;32.67;101370.69;5004701;28;20456;-68
2022/09/25 11:10:42;;;;;;;3.33;0.10;;;;;;;17.36;31.83;101363.75;4993065;28;20030;-68
2022/09/25 11:13:16;;;;;;;2.72;0.10;;;;;;;16.97;32.33;101361.72;4995572;28;20457;-68
2022/09/25 11:15:51;;;;;;;0.95;0.10;;;;;;;16.27;34.04;101370.13;5009255;28;20030;-68
2022/09/25 11:18:35;;;;;;;2.78;0.10;;;;;;;15.96;34.68;101358.59;5011698;28;20034;-68
2022/09/25 11:21:03;;;;;;;2.85;0.10;;;;;;;16.73;32.79;101356.94;5009421;28;20033;-68
2022/09/25 11:23:39;;;;;;;5.50;0.10;;;;;;;16.81;32.74;101359.97;5011164;28;20402;-68
2022/09/25 11:26:09;;;;;;;2.35;0.17;;;;;;;16.96;30.34;101355.59;5012486;28;20033;-68
2022/09/25 11:28:43;;;;;;;0.98;0.10;;;;;;;17.67;29.11;101345.16;5011479;28;20057;-69
2022/09/25 11:31:14;;;;;;;3.80;0.20;;;;;;;17.87;30.47;101342.13;5015711;28;20084;-68
2022/09/25 11:33:58;;;;;;;4.35;0.10;;;;;;;17.37;31.12;101346.09;5010095;28;20127;-68
2022/09/25 11:36:31;;;;;;;4.00;0.10;;;;;;;17.39;30.98;101352.16;5011048;28;20033;-68
2022/09/25 11:41:55;;;;;;;3.13;0.22;;;;;;;17.68;29.58;101341.59;5009294;28;20040;-68
2022/09/25 11:44:41;;;;;;;1.55;0.10;;;;;;;17.84;29.24;101348.44;5015919;28;20029;-68
2022/09/25 11:47:32;;;;;;;1.52;0.10;;;;;;;16.96;30.46;101345.03;4993125;28;20053;-69
2022/09/25 11:50:01;;;;;;;2.42;0.10;;;;;;;17.72;29.78;101343.13;5009664;28;20092;-67
2022/09/25 11:53:01;;;;;;;1.60;0.20;;;;;;;18.70;29.58;101342.03;5015293;28;20049;-68
2022/09/25 11:55:40;;;;;;;4.43;0.20;;;;;;;17.67;30.05;101345.16;5009817;28;20037;-68
2022/09/25 11:58:19;;;;;;;1.60;0.10;;;;;;;18.28;29.08;101336.00;5011168;28;20061;-69
2022/09/25 12:01:03;;;;;;;2.92;0.20;;;;;;;17.74;29.65;101323.56;5014721;28;20037;-69
2022/09/25 12:03:31;;;;;;;7.63;0.20;;;;;;;18.50;31.04;101330.13;5009871;28;20053;-69
2022/09/25 12:06:20;;;;;;;1.08;0.30;;;;;;;18.64;29.40;101326.56;5013954;28;20106;-68